Time;durP1;ratioP1;P1;durP2;ratioP2;P2;SDS_P1;SDS_P2;PMS_P1;PMS_P2;Temp;Humidity;BMP_temperature;BMP_pressure;BME280_temperature;BME280_humidity;BME280_pressure;Samples;Min_cycle;Max_cycle;Signal;HPM_P1;HPM_P2
2021/10/31 00:02:00;;;;;;;4.63;2.20;;;;;;;17.40;55.39;100317.16;4145905;28;20046;-52
2021/10/31 00:04:02;;;;;;;4.25;2.30;;;;;;;17.40;55.66;100320.66;4145578;28;20046;-54
2021/10/31 00:06:04;;;;;;;6.82;2.50;;;;;;;17.43;55.49;100321.41;4145651;28;20049;-52
2021/10/31 00:08:06;;;;;;;5.90;2.30;;;;;;;17.42;55.55;100315.22;4145292;28;20057;-51
2021/10/31 00:10:09;;;;;;;;;;;;;;;17.39;55.49;100316.28;4146062;28;20096;-52
2021/10/31 00:12:12;;;;;;;4.93;2.47;;;;;;;17.37;55.62;100315.53;4148291;28;19983;-53
2021/10/31 00:14:14;;;;;;;4.90;1.90;;;;;;;17.38;55.34;100314.59;4151845;28;20053;-53
2021/10/31 00:16:16;;;;;;;;;;;;;;;17.38;55.52;100313.75;4146090;28;20069;-53
2021/10/31 00:18:18;;;;;;;5.07;2.20;;;;;;;17.30;55.32;100308.13;4145479;28;19925;-52
2021/10/31 00:20:20;;;;;;;;;;;;;;;17.35;55.35;100317.47;4145651;28;20112;-52
2021/10/31 00:22:22;;;;;;;3.67;2.00;;;;;;;17.34;55.33;100317.56;4161071;28;20466;-54
2021/10/31 00:24:24;;;;;;;;;;;;;;;17.33;55.49;100316.72;4145949;28;20049;-55
2021/10/31 00:26:26;;;;;;;4.53;2.15;;;;;;;17.31;55.70;100315.97;4145775;28;19921;-53
2021/10/31 00:28:29;;;;;;;4.63;2.30;;;;;;;17.31;55.80;100312.47;4145576;28;20057;-55
2021/10/31 00:30:31;;;;;;;3.67;1.80;;;;;;;17.29;55.45;100303.75;4145557;28;20050;-53
2021/10/31 00:32:33;;;;;;;4.20;1.83;;;;;;;17.32;55.41;100307.06;4146040;28;20050;-54
2021/10/31 00:34:35;;;;;;;4.03;1.80;;;;;;;17.35;55.64;100313.94;4160375;28;20045;-54
2021/10/31 00:36:37;;;;;;;;;;;;;;;17.32;55.34;100309.72;4146125;28;20069;-55
2021/10/31 00:38:39;;;;;;;5.15;2.08;;;;;;;17.31;55.50;100310.66;4145520;28;20432;-53
2021/10/31 00:40:44;;;;;;;4.50;1.80;;;;;;;17.33;55.17;100313.22;4145290;28;20038;-53
2021/10/31 00:42:47;;;;;;;4.90;1.83;;;;;;;17.32;55.24;100315.03;4145757;28;20104;-53
2021/10/31 00:44:49;;;;;;;4.53;2.10;;;;;;;17.31;55.25;100308.00;4145342;28;20208;-53
2021/10/31 00:46:51;;;;;;;;;;;;;;;17.31;55.36;100321.28;4145828;28;20038;-52
2021/10/31 00:48:53;;;;;;;4.78;2.00;;;;;;;17.29;55.56;100317.03;4147825;28;19980;-53
2021/10/31 00:50:55;;;;;;;;;;;;;;;17.29;55.37;100325.88;4148852;28;20054;-53
2021/10/31 00:52:58;;;;;;;4.00;1.98;;;;;;;17.27;55.41;100327.78;4148308;28;19921;-54
2021/10/31 00:55:00;;;;;;;4.28;2.03;;;;;;;17.29;55.15;100322.38;4148190;28;20085;-54
2021/10/31 00:57:04;;;;;;;3.92;2.00;;;;;;;17.30;55.54;100314.28;4148347;28;20063;-51
2021/10/31 00:59:06;;;;;;;3.90;1.90;;;;;;;17.31;55.27;100312.47;4163001;28;20053;-54
2021/10/31 01:01:08;;;;;;;;;;;;;;;17.29;55.50;100309.94;4148532;28;20050;-53
2021/10/31 01:03:11;;;;;;;4.22;1.90;;;;;;;17.24;55.41;100304.94;4148595;28;19925;-54
2021/10/31 01:05:17;;;;;;;;;;;;;;;17.26;55.73;100302.16;4148373;28;20108;-53
2021/10/31 01:07:34;;;;;;;4.60;1.90;;;;;;;17.26;55.55;100304.00;4147966;28;19928;-53
2021/10/31 01:10:00;;;;;;;3.65;1.90;;;;;;;17.27;55.43;100298.56;4148089;28;20402;-53
2021/10/31 01:12:36;;;;;;;4.43;1.95;;;;;;;17.29;55.47;100293.13;4147723;28;20050;-53
2021/10/31 01:15:00;;;;;;;3.45;1.85;;;;;;;17.29;55.37;100298.44;4148219;28;20049;-54
2021/10/31 01:17:08;;;;;;;4.20;1.80;;;;;;;17.26;55.33;100294.19;4147739;28;20100;-52
2021/10/31 01:19:28;;;;;;;4.10;1.92;;;;;;;17.28;55.43;100302.06;4131743;28;20557;-54
2021/10/31 01:21:48;;;;;;;4.60;1.90;;;;;;;17.28;55.53;100302.06;4146336;28;20037;-55
2021/10/31 01:24:07;;;;;;;3.80;1.70;;;;;;;17.27;55.11;100298.56;4147787;28;20071;-54
2021/10/31 01:26:27;;;;;;;4.75;1.70;;;;;;;17.24;55.39;100301.41;4146516;28;20053;-54
2021/10/31 01:28:54;;;;;;;3.80;1.83;;;;;;;17.25;55.33;100305.78;4147720;28;20601;-53
2021/10/31 01:31:18;;;;;;;4.72;2.10;;;;;;;17.24;55.51;100294.31;4146689;28;20054;-54
2021/10/31 01:33:46;;;;;;;4.07;1.83;;;;;;;17.23;55.51;100289.94;4137370;28;20041;-54
2021/10/31 01:36:00;;;;;;;4.93;1.80;;;;;;;17.21;55.29;100281.22;4147628;28;20057;-54
2021/10/31 01:38:10;;;;;;;3.95;2.00;;;;;;;17.22;55.17;100292.72;4144651;28;20046;-54
2021/10/31 01:40:35;;;;;;;4.55;1.83;;;;;;;17.23;55.29;100283.78;4147605;28;20061;-54
2021/10/31 01:43:02;;;;;;;4.20;1.85;;;;;;;17.23;55.05;100279.31;4147544;28;20053;-55
2021/10/31 01:45:17;;;;;;;4.35;1.90;;;;;;;17.20;55.37;100273.38;4131372;28;20089;-53
2021/10/31 01:48:10;;;;;;;3.80;1.70;;;;;;;17.20;55.24;100270.72;4142028;28;20045;-52
2021/10/31 01:50:27;;;;;;;3.72;1.88;;;;;;;17.19;55.11;100271.66;4130353;28;20116;-53
2021/10/31 01:52:34;;;;;;;4.18;1.90;;;;;;;17.18;55.55;100264.66;4140814;28;20514;-52
2021/10/31 01:54:43;;;;;;;5.35;2.00;;;;;;;17.19;55.10;100266.34;4147570;28;20099;-53
2021/10/31 01:56:50;;;;;;;4.13;1.85;;;;;;;17.17;55.48;100254.97;4147117;28;20050;-53
2021/10/31 01:59:03;;;;;;;3.90;1.70;;;;;;;17.20;55.46;100262.75;4162031;28;20049;-52
2021/10/31 02:01:07;;;;;;;4.47;2.10;;;;;;;17.18;55.32;100268.19;4147482;28;20100;-54
2021/10/31 02:03:12;;;;;;;3.65;1.75;;;;;;;17.16;55.05;100254.13;4147419;28;20106;-54
2021/10/31 02:05:19;;;;;;;4.47;1.80;;;;;;;17.17;55.30;100257.63;4147820;28;20107;-54
2021/10/31 02:07:23;;;;;;;4.35;2.05;;;;;;;17.15;55.10;100256.91;4146989;28;20050;-55
2021/10/31 02:09:29;;;;;;;4.07;1.60;;;;;;;17.16;55.20;100256.78;4147134;28;20433;-55
2021/10/31 02:11:36;;;;;;;3.63;1.70;;;;;;;17.16;55.05;100256.78;4147699;28;20108;-54
2021/10/31 02:13:40;;;;;;;4.28;1.70;;;;;;;17.15;55.01;100251.59;4145606;28;20100;-53
2021/10/31 02:15:47;;;;;;;4.10;1.80;;;;;;;17.13;55.02;100249.03;4147202;28;20486;-54
2021/10/31 02:17:53;;;;;;;4.75;1.80;;;;;;;17.08;55.04;100243.19;4146799;28;20054;-54
2021/10/31 02:19:56;;;;;;;4.10;1.58;;;;;;;17.13;55.36;100251.69;4146971;28;20470;-53
2021/10/31 02:22:03;;;;;;;4.10;1.80;;;;;;;17.12;55.18;100244.69;4146974;28;20049;-53
2021/10/31 02:24:08;;;;;;;3.42;1.55;;;;;;;17.12;55.22;100242.03;4146757;28;20066;-54
2021/10/31 02:26:11;;;;;;;4.00;1.70;;;;;;;17.11;55.13;100239.47;4147086;28;20403;-55
2021/10/31 02:28:14;;;;;;;3.10;1.52;;;;;;;17.13;55.18;100250.84;4146880;28;20489;-54
2021/10/31 02:30:16;;;;;;;3.47;1.75;;;;;;;17.12;54.82;100242.03;4146641;28;20041;-55
2021/10/31 02:32:22;;;;;;;4.07;1.60;;;;;;;17.12;55.04;100243.81;4147023;28;20414;-54
2021/10/31 02:34:24;;;;;;;4.95;1.83;;;;;;;17.11;55.16;100245.66;4146477;28;20104;-52
2021/10/31 02:36:26;;;;;;;;;;;;;;;17.08;55.22;100238.75;4147276;28;20099;-57
2021/10/31 02:38:28;;;;;;;3.25;1.50;;;;;;;17.06;55.15;100248.63;4146813;28;20234;-55
2021/10/31 02:40:34;;;;;;;;;;;;;;;17.05;55.16;100244.25;4147048;28;20421;-56
2021/10/31 02:42:37;;;;;;;4.68;1.83;;;;;;;17.05;55.14;100235.47;4146812;28;20298;-58
2021/10/31 02:44:40;;;;;;;3.08;1.42;;;;;;;17.06;55.01;100232.69;4146280;28;20046;-56
2021/10/31 02:46:42;;;;;;;3.03;1.60;;;;;;;17.06;55.07;100221.19;4146749;28;20042;-56
2021/10/31 02:48:44;;;;;;;4.90;1.85;;;;;;;17.04;55.08;100213.34;4146385;28;20433;-56
2021/10/31 02:50:46;;;;;;;;;;;;;;;17.05;55.35;100219.50;4146912;28;20478;-57
2021/10/31 02:53:06;;;;;;;3.28;1.52;;;;;;;17.04;55.12;100215.16;4146898;28;20385;-58
2021/10/31 02:55:36;;;;;;;4.80;1.60;;;;;;;17.05;55.27;100204.41;4146323;28;20461;-57
2021/10/31 02:58:01;;;;;;;4.40;1.70;;;;;;;17.05;54.95;100208.88;4130535;28;20050;-52
2021/10/31 03:00:06;;;;;;;3.45;1.67;;;;;;;17.02;55.02;100206.44;4142181;28;20572;-52
2021/10/31 03:02:10;;;;;;;3.85;1.85;;;;;;;17.02;55.20;100202.00;4146659;28;20054;-54
2021/10/31 03:04:12;;;;;;;3.75;1.60;;;;;;;17.03;55.10;100203.66;4146442;28;20050;-57
2021/10/31 03:06:19;;;;;;;4.30;1.60;;;;;;;17.02;55.00;100201.13;4146468;28;20486;-54
2021/10/31 03:08:22;;;;;;;3.38;1.60;;;;;;;17.02;54.95;100202.00;4146610;28;20613;-58
2021/10/31 03:10:24;;;;;;;4.55;1.60;;;;;;;17.02;55.12;100198.47;4145834;28;20449;-56
2021/10/31 03:12:26;;;;;;;4.78;2.00;;;;;;;17.02;54.71;100185.19;4146220;28;20049;-58
2021/10/31 03:14:28;;;;;;;;;;;;;;;17.01;54.92;100180.81;4146485;28;20046;-55
2021/10/31 03:16:35;;;;;;;3.20;1.65;;;;;;;16.96;54.94;100172.34;4146186;28;19933;-57
2021/10/31 03:18:37;;;;;;;4.68;1.65;;;;;;;16.93;55.01;100171.59;4146270;28;20710;-56
2021/10/31 03:20:39;;;;;;;3.50;1.70;;;;;;;16.98;55.14;100175.75;4145697;28;20065;-50
2021/10/31 03:22:42;;;;;;;4.63;1.65;;;;;;;16.99;54.93;100172.97;4146236;28;20045;-52
2021/10/31 03:24:44;;;;;;;4.38;2.15;;;;;;;16.99;54.88;100170.31;4145824;28;20496;-55
2021/10/31 03:26:46;;;;;;;4.72;1.92;;;;;;;16.99;54.90;100169.47;4146059;28;20046;-55
2021/10/31 03:28:47;;;;;;;;;;;;;;;16.96;54.99;100170.53;4146522;28;20046;-55
2021/10/31 03:30:50;;;;;;;4.57;1.80;;;;;;;16.91;55.16;100156.69;4160841;28;19936;-53
2021/10/31 03:32:52;;;;;;;;;;;;;;;16.92;55.20;100156.59;4146643;28;20092;-53
2021/10/31 03:34:54;;;;;;;5.15;1.98;;;;;;;16.90;55.14;100155.84;4146012;28;19928;-57
2021/10/31 03:36:56;;;;;;;5.18;1.73;;;;;;;16.92;54.83;100155.78;4145722;28;20553;-58
2021/10/31 03:38:58;;;;;;;;;;;;;;;16.90;54.87;100161.16;4146378;28;20046;-57
2021/10/31 03:41:00;;;;;;;3.63;1.92;;;;;;;16.87;55.11;100149.91;4145815;28;19921;-58
2021/10/31 03:43:03;;;;;;;3.55;1.80;;;;;;;16.92;54.97;100147.81;4145968;28;20049;-56
2021/10/31 03:45:07;;;;;;;6.03;2.03;;;;;;;16.92;55.18;100145.16;4145850;28;20057;-57
2021/10/31 03:47:10;;;;;;;5.80;1.90;;;;;;;16.90;55.12;100145.22;4144268;28;20046;-54
2021/10/31 03:49:13;;;;;;;4.18;2.17;;;;;;;16.89;55.12;100140.88;4145779;28;20045;-56
2021/10/31 03:51:15;;;;;;;4.47;1.90;;;;;;;16.92;55.05;100145.16;4145702;28;20465;-56
2021/10/31 03:53:17;;;;;;;3.47;1.67;;;;;;;16.91;55.14;100149.59;4145997;28;20041;-55
2021/10/31 03:55:19;;;;;;;3.88;1.73;;;;;;;16.87;54.75;100148.09;4145884;28;20046;-55
2021/10/31 03:57:21;;;;;;;;;;;;;;;16.89;55.19;100146.19;4145962;28;20468;-57
2021/10/31 03:59:24;;;;;;;4.35;2.00;;;;;;;16.86;55.02;100143.75;4145503;28;20320;-56
2021/10/31 04:01:28;;;;;;;4.30;1.85;;;;;;;16.86;54.97;100138.44;4145579;28;20620;-57
2021/10/31 04:03:31;;;;;;;4.18;1.98;;;;;;;16.87;54.82;100133.97;4145901;28;20038;-58
2021/10/31 04:05:33;;;;;;;;;;;;;;;16.86;54.88;100134.94;4146186;28;20050;-51
2021/10/31 04:07:35;;;;;;;4.80;2.20;;;;;;;16.84;55.16;100135.06;4145603;28;20373;-57
2021/10/31 04:09:37;;;;;;;;;;;;;;;16.82;55.02;100139.63;4145987;28;20112;-56
2021/10/31 04:11:39;;;;;;;4.00;1.92;;;;;;;16.79;54.93;100131.00;4145498;28;19928;-51
2021/10/31 04:13:41;;;;;;;4.95;1.90;;;;;;;16.79;55.10;100128.34;4145433;28;20129;-57
2021/10/31 04:15:44;;;;;;;4.45;2.13;;;;;;;16.81;54.90;100115.84;4145622;28;20046;-53
2021/10/31 04:17:46;;;;;;;4.85;2.00;;;;;;;16.83;54.99;100125.38;4145248;28;20038;-57
2021/10/31 04:19:48;;;;;;;4.85;2.15;;;;;;;16.79;55.09;100112.44;4145755;28;20090;-52
2021/10/31 04:21:50;;;;;;;;;;;;;;;16.81;55.22;100115.84;4145978;28;20096;-55
2021/10/31 04:23:52;;;;;;;4.10;2.25;;;;;;;16.78;54.82;100106.28;4148147;28;19925;-51
2021/10/31 04:25:54;;;;;;;;;;;;;;;16.77;55.33;100113.38;4149380;28;20049;-56
2021/10/31 04:27:56;;;;;;;6.05;2.40;;;;;;;16.74;54.88;100112.75;4148665;28;20365;-58
2021/10/31 04:29:58;;;;;;;;;;;;;;;16.76;54.88;100116.16;4148906;28;20061;-54
2021/10/31 04:32:00;;;;;;;5.50;2.25;;;;;;;16.75;55.43;100111.78;4148652;28;19921;-54
2021/10/31 04:34:02;;;;;;;5.35;2.35;;;;;;;16.76;55.15;100113.50;4148652;28;20046;-52
2021/10/31 04:36:05;;;;;;;4.70;2.47;;;;;;;16.76;54.63;100101.06;4148814;28;20045;-56
2021/10/31 04:38:15;;;;;;;5.03;2.50;;;;;;;16.76;55.18;100098.41;4148496;28;20568;-56
2021/10/31 04:40:21;;;;;;;5.38;2.78;;;;;;;16.73;54.86;100101.28;4148776;28;20100;-55
2021/10/31 04:42:29;;;;;;;4.05;2.53;;;;;;;16.75;54.92;100099.34;4148691;28;20600;-53
2021/10/31 04:44:33;;;;;;;4.85;2.75;;;;;;;16.76;54.68;100102.88;4148689;28;20046;-57
2021/10/31 04:46:35;;;;;;;4.97;2.58;;;;;;;16.76;54.76;100100.22;4148386;28;20127;-56
2021/10/31 04:48:37;;;;;;;4.97;3.05;;;;;;;16.75;55.01;100104.66;4148119;28;20057;-54
2021/10/31 04:50:39;;;;;;;;;;;;;;;16.73;55.12;100103.94;4148820;28;20046;-55
2021/10/31 04:52:43;;;;;;;5.30;2.92;;;;;;;16.72;55.07;100098.72;4148507;28;19929;-56
2021/10/31 04:54:45;;;;;;;5.35;2.72;;;;;;;16.73;55.03;100097.78;4148408;28;20049;-57
2021/10/31 04:56:47;;;;;;;;;;;;;;;16.72;54.84;100098.72;4148909;28;20046;-58
2021/10/31 04:58:53;;;;;;;4.28;2.63;;;;;;;16.70;55.19;100088.22;4147993;28;19925;-58
2021/10/31 05:00:59;;;;;;;5.97;3.15;;;;;;;16.71;55.21;100081.97;4147933;28;20050;-57
2021/10/31 05:03:03;;;;;;;5.70;2.97;;;;;;;16.71;55.26;100074.00;4148058;28;20053;-57
2021/10/31 05:05:05;;;;;;;5.78;3.35;;;;;;;16.71;55.41;100070.50;4148222;28;20061;-55
2021/10/31 05:07:07;;;;;;;5.72;3.10;;;;;;;16.69;55.15;100065.28;4148241;28;20050;-55
2021/10/31 05:09:13;;;;;;;6.20;3.30;;;;;;;16.70;54.81;100060.84;4147749;28;20046;-54
2021/10/31 05:11:15;;;;;;;5.65;3.03;;;;;;;16.70;54.82;100055.53;4147905;28;20049;-56
2021/10/31 05:13:17;;;;;;;5.82;3.13;;;;;;;16.70;54.87;100051.06;4147729;28;20053;-57
2021/10/31 05:15:19;;;;;;;;;;;;;;;16.68;55.16;100050.31;4148293;28;20049;-58
2021/10/31 05:17:21;;;;;;;5.57;3.17;;;;;;;16.65;55.20;100047.88;4148215;28;19922;-57
2021/10/31 05:19:23;;;;;;;;;;;;;;;16.65;54.96;100039.91;4148183;28;20046;-57
2021/10/31 05:21:25;;;;;;;6.07;3.25;;;;;;;16.64;54.97;100029.41;4146420;28;19921;-56
2021/10/31 05:23:28;;;;;;;;;;;;;;;16.64;55.02;100035.56;4148027;28;20088;-57
2021/10/31 05:25:30;;;;;;;5.80;3.00;;;;;;;16.53;55.20;100015.09;4147647;28;19925;-55
2021/10/31 05:27:33;;;;;;;5.07;2.97;;;;;;;16.64;55.12;100026.75;4147976;28;20100;-57
2021/10/31 05:29:35;;;;;;;5.43;3.17;;;;;;;16.65;54.88;100015.16;4147580;28;20494;-57
2021/10/31 05:31:39;;;;;;;;;;;;;;;16.63;55.07;100017.09;4148396;28;20042;-56
2021/10/31 05:33:42;;;;;;;5.40;3.53;;;;;;;16.60;55.43;100012.88;4147342;28;19947;-56
2021/10/31 05:35:44;;;;;;;5.18;3.20;;;;;;;16.62;54.98;100008.28;4147165;28;20096;-55
2021/10/31 05:37:47;;;;;;;;;;;;;;;16.61;55.07;100004.78;4148030;28;20049;-57
2021/10/31 05:39:49;;;;;;;5.22;2.83;;;;;;;16.59;55.01;100004.03;4147349;28;19933;-56
2021/10/31 05:41:51;;;;;;;5.00;2.88;;;;;;;16.62;55.28;100000.31;4147610;28;20049;-56
2021/10/31 05:43:53;;;;;;;5.40;3.30;;;;;;;16.61;55.12;99996.81;4147650;28;20045;-53
2021/10/31 05:45:56;;;;;;;5.78;3.38;;;;;;;16.62;55.14;100000.31;4147285;28;20437;-57
2021/10/31 05:47:58;;;;;;;5.25;3.10;;;;;;;16.63;55.14;99993.22;4146942;28;20045;-53
2021/10/31 05:50:02;;;;;;;5.95;3.42;;;;;;;16.59;55.33;99980.13;4147006;28;20053;-56
2021/10/31 05:52:05;;;;;;;5.90;3.05;;;;;;;16.60;55.40;99995.13;4147334;28;20123;-57
2021/10/31 05:54:08;;;;;;;5.70;2.88;;;;;;;16.55;55.36;99985.78;4147336;28;20045;-54
2021/10/31 05:56:11;;;;;;;4.18;2.80;;;;;;;16.61;55.00;99996.81;4147062;28;20046;-55
2021/10/31 05:58:13;;;;;;;6.18;3.10;;;;;;;16.61;55.29;99990.66;4147506;28;20107;-57
2021/10/31 06:00:16;;;;;;;5.60;3.22;;;;;;;16.60;55.30;99987.16;4146571;28;20100;-54
2021/10/31 06:02:19;;;;;;;5.30;3.03;;;;;;;16.60;55.19;99983.66;4147219;28;20044;-53
2021/10/31 06:04:24;;;;;;;6.10;3.00;;;;;;;16.58;55.34;99975.78;4147427;28;20050;-56
2021/10/31 06:06:27;;;;;;;5.13;2.85;;;;;;;16.59;55.35;99969.53;4146881;28;20050;-54
2021/10/31 06:08:29;;;;;;;7.93;2.80;;;;;;;16.59;55.27;99961.56;4147219;28;20046;-53
2021/10/31 06:10:31;;;;;;;;;;;;;;;16.58;55.20;99959.03;4147399;28;20457;-52
2021/10/31 06:12:33;;;;;;;5.10;2.50;;;;;;;16.55;55.10;99949.47;4145766;28;19921;-53
2021/10/31 06:14:35;;;;;;;4.60;2.50;;;;;;;16.57;55.12;99954.66;4147078;28;20100;-52
2021/10/31 06:16:38;;;;;;;4.60;2.67;;;;;;;16.57;55.30;99952.00;4146753;28;20053;-51
2021/10/31 06:18:40;;;;;;;4.63;2.40;;;;;;;16.52;55.14;99938.25;4147175;28;20498;-52
2021/10/31 06:20:43;;;;;;;5.45;2.78;;;;;;;16.55;55.06;99948.63;4151225;28;20092;-53
2021/10/31 06:22:45;;;;;;;5.88;2.42;;;;;;;16.57;55.22;99954.66;4146796;28;20115;-52
2021/10/31 06:24:47;;;;;;;5.55;2.40;;;;;;;16.57;55.31;99959.97;4147018;28;20092;-57
2021/10/31 06:26:49;;;;;;;;;;;;;;;16.55;55.26;99951.28;4147080;28;20054;-53
2021/10/31 06:28:51;;;;;;;5.10;2.47;;;;;;;16.54;55.35;99958.41;4146942;28;19921;-56
2021/10/31 06:30:53;;;;;;;;;;;;;;;16.52;55.47;99957.66;4147136;28;20046;-54
2021/10/31 06:32:55;;;;;;;4.50;2.28;;;;;;;16.52;55.60;99959.47;4146618;28;19944;-55
2021/10/31 06:34:57;;;;;;;;;;;;;;;16.51;55.43;99958.59;4147502;28;20104;-56
2021/10/31 06:36:59;;;;;;;5.07;2.45;;;;;;;16.50;55.07;99943.66;4146419;28;19929;-53
2021/10/31 06:39:02;;;;;;;;;;;;;;;16.51;55.36;99933.88;4147331;28;20521;-55
2021/10/31 06:41:07;;;;;;;4.45;2.22;;;;;;;16.48;55.46;99926.13;4146558;28;20396;-53
2021/10/31 06:43:09;;;;;;;4.55;2.10;;;;;;;16.51;55.13;99929.41;4142991;28;20054;-52
2021/10/31 06:45:11;;;;;;;5.00;2.10;;;;;;;16.51;55.55;99921.44;4146384;28;20046;-54
2021/10/31 06:47:16;;;;;;;;;;;;;;;16.50;55.50;99909.16;4146380;28;20045;-53
2021/10/31 06:49:18;;;;;;;4.43;2.30;;;;;;;16.48;55.53;99905.75;4146539;28;19922;-52
2021/10/31 06:51:20;;;;;;;;;;;;;;;16.48;55.60;99905.75;4146883;28;20227;-54
2021/10/31 06:53:22;;;;;;;3.90;2.00;;;;;;;16.48;55.63;99904.91;4145578;28;20005;-53
2021/10/31 06:55:25;;;;;;;;;;;;;;;16.47;55.64;99912.03;4147041;28;20100;-51
2021/10/31 06:57:27;;;;;;;4.43;1.90;;;;;;;16.42;55.43;99900.91;4146254;28;19936;-52
2021/10/31 06:59:32;;;;;;;5.57;2.28;;;;;;;16.47;55.37;99896.09;4146226;28;20054;-54
2021/10/31 07:01:34;;;;;;;4.68;2.20;;;;;;;16.48;55.30;99895.16;4146162;28;20049;-55
2021/10/31 07:03:36;;;;;;;5.07;2.20;;;;;;;16.46;55.75;99886.44;4146149;28;20053;-51
2021/10/31 07:05:39;;;;;;;3.97;1.92;;;;;;;16.45;55.74;99877.66;4130314;28;20042;-53
2021/10/31 07:07:41;;;;;;;3.55;1.83;;;;;;;16.35;55.70;99858.03;4136904;28;20050;-54
2021/10/31 07:09:43;;;;;;;;;;;;;;;16.46;55.41;99875.81;4146817;28;20038;-52
2021/10/31 07:11:45;;;;;;;5.32;2.00;;;;;;;16.45;55.46;99871.47;4146054;28;19965;-53
2021/10/31 07:13:47;;;;;;;4.88;1.90;;;;;;;16.45;55.41;99868.81;4146772;28;20046;-54
2021/10/31 07:15:49;;;;;;;;;;;;;;;16.44;55.72;99873.28;4146841;28;20585;-52
2021/10/31 07:17:52;;;;;;;4.03;2.10;;;;;;;16.42;55.77;99885.81;4146015;28;19921;-57
2021/10/31 07:19:55;;;;;;;4.75;2.00;;;;;;;16.40;55.99;99886.91;4146062;28;20075;-54
2021/10/31 07:21:56;;;;;;;;;;;;;;;16.43;55.95;99878.72;4146585;28;20101;-56
2021/10/31 07:23:59;;;;;;;4.05;1.77;;;;;;;16.40;55.71;99873.63;4145842;28;20385;-55
2021/10/31 07:26:01;;;;;;;;;;;;;;;16.41;55.95;99867.38;4146333;28;20092;-56
2021/10/31 07:28:03;;;;;;;5.05;1.90;;;;;;;16.40;55.88;99873.63;4145940;28;19970;-55
2021/10/31 07:30:06;;;;;;;4.13;1.70;;;;;;;16.42;55.58;99880.50;4160954;28;20049;-55
2021/10/31 07:32:08;;;;;;;4.53;1.80;;;;;;;16.41;55.64;99862.88;4146007;28;20108;-56
2021/10/31 07:34:12;;;;;;;4.07;1.80;;;;;;;16.43;55.77;99876.91;4145533;28;20053;-56
2021/10/31 07:36:14;;;;;;;5.28;2.03;;;;;;;16.41;55.81;99865.53;4145728;28;20080;-53
2021/10/31 07:38:16;;;;;;;5.05;2.03;;;;;;;16.43;55.75;99865.44;4145404;28;20422;-53
2021/10/31 07:40:18;;;;;;;;;;;;;;;16.42;55.98;99853.13;4146141;28;20041;-56
2021/10/31 07:42:27;;;;;;;5.05;1.83;;;;;;;16.39;55.76;99854.22;4146086;28;19921;-56
2021/10/31 07:44:30;;;;;;;5.05;1.90;;;;;;;16.42;55.91;99853.97;4145511;28;20050;-53
2021/10/31 07:46:33;;;;;;;;;;;;;;;16.41;55.95;99852.28;4145958;28;20041;-56
2021/10/31 07:48:36;;;;;;;3.75;1.77;;;;;;;16.39;55.87;99843.59;4145647;28;19930;-53
2021/10/31 07:50:38;;;;;;;;;;;;;;;16.40;55.75;99839.13;4146280;28;20224;-55
2021/10/31 07:52:45;;;;;;;4.35;1.80;;;;;;;16.39;55.98;99842.75;4145670;28;19952;-55
2021/10/31 07:54:48;;;;;;;4.00;1.80;;;;;;;16.41;55.51;99843.47;4145476;28;20041;-56
2021/10/31 07:56:53;;;;;;;5.55;2.05;;;;;;;16.42;55.70;99839.88;4145458;28;20049;-57
2021/10/31 07:58:55;;;;;;;4.03;1.50;;;;;;;16.41;55.88;99839.00;4145611;28;20049;-53
2021/10/31 08:00:57;;;;;;;;;;;;;;;16.41;55.92;99836.34;4145995;28;20497;-50
2021/10/31 08:03:01;;;;;;;3.90;1.80;;;;;;;16.40;55.76;99826.72;4145702;28;19968;-54
2021/10/31 08:05:04;;;;;;;3.90;1.70;;;;;;;16.41;55.97;99822.25;4145483;28;20046;-56
2021/10/31 08:07:06;;;;;;;3.65;1.70;;;;;;;16.39;55.77;99817.06;4145774;28;20448;-51
2021/10/31 08:09:08;;;;;;;;;;;;;;;16.42;55.95;99818.63;4145975;28;20050;-52
2021/10/31 08:11:11;;;;;;;3.65;1.70;;;;;;;16.41;56.10;99815.13;4145430;28;19921;-53
2021/10/31 08:13:27;;;;;;;4.80;1.60;;;;;;;16.43;55.75;99807.91;4156610;28;20045;-56
2021/10/31 08:15:29;;;;;;;4.25;1.77;;;;;;;16.43;55.92;99807.06;4150061;28;20061;-55
2021/10/31 08:17:32;;;;;;;3.45;1.65;;;;;;;16.43;55.52;99807.06;4145472;28;20046;-56
2021/10/31 08:19:34;;;;;;;4.22;1.60;;;;;;;16.43;55.72;99810.56;4145329;28;20046;-56
2021/10/31 08:21:37;;;;;;;3.78;1.52;;;;;;;16.43;55.90;99805.25;4145189;28;20041;-54
2021/10/31 08:23:39;;;;;;;3.42;1.58;;;;;;;16.44;55.95;99795.50;4145579;28;20049;-55
2021/10/31 08:25:43;;;;;;;4.32;1.40;;;;;;;16.44;55.75;99788.38;4145078;28;20045;-56
2021/10/31 08:27:46;;;;;;;3.97;1.75;;;;;;;16.43;55.89;99786.66;4145278;28;20050;-50
2021/10/31 08:29:48;;;;;;;3.53;1.55;;;;;;;16.46;55.94;99796.22;4145031;28;20046;-57
2021/10/31 08:31:53;;;;;;;4.25;1.73;;;;;;;16.47;55.66;99794.41;4145288;28;20046;-52
2021/10/31 08:33:58;;;;;;;3.60;1.58;;;;;;;16.47;55.96;99786.47;4145385;28;20490;-57
2021/10/31 08:36:01;;;;;;;4.30;1.60;;;;;;;16.45;55.82;99783.88;4145269;28;20049;-53
2021/10/31 08:38:04;;;;;;;4.38;1.60;;;;;;;16.45;55.71;99782.09;4144992;28;20061;-54
2021/10/31 08:40:06;;;;;;;;;;;;;;;16.45;56.01;99779.44;4145749;28;20133;-53
2021/10/31 08:42:09;;;;;;;3.60;1.40;;;;;;;16.43;55.94;99776.06;4141884;28;19922;-53
2021/10/31 08:44:12;;;;;;;4.68;1.70;;;;;;;16.45;55.83;99775.94;4145569;28;20050;-53
2021/10/31 08:46:17;;;;;;;2.85;1.38;;;;;;;16.43;55.83;99762.78;4145132;28;20042;-57
2021/10/31 08:48:20;;;;;;;4.03;1.70;;;;;;;16.46;55.94;99759.06;4139340;28;20045;-53
2021/10/31 08:50:22;;;;;;;3.05;1.40;;;;;;;16.47;55.77;99763.41;4145247;28;20046;-53
2021/10/31 08:52:24;;;;;;;6.07;1.60;;;;;;;16.46;55.97;99756.41;4145191;28;20119;-50
2021/10/31 08:54:26;;;;;;;;;;;;;;;16.46;55.83;99751.09;4146033;28;20490;-53
2021/10/31 08:56:29;;;;;;;4.43;1.60;;;;;;;16.45;55.84;99752.03;4145176;28;20471;-57
2021/10/31 08:58:32;;;;;;;2.80;1.38;;;;;;;16.41;55.94;99735.50;4145583;28;20100;-53
2021/10/31 09:00:35;;;;;;;3.45;1.30;;;;;;;16.47;55.87;99736.84;4145097;28;20098;-57
2021/10/31 09:02:37;;;;;;;3.38;1.27;;;;;;;16.49;56.06;99728.78;4144896;28;20049;-57
2021/10/31 09:04:40;;;;;;;3.63;1.50;;;;;;;16.47;55.64;99717.44;4145207;28;20050;-56
2021/10/31 09:06:42;;;;;;;3.22;1.60;;;;;;;16.49;55.77;99712.84;4145001;28;20097;-53
2021/10/31 09:08:44;;;;;;;;;;;;;;;16.48;55.93;99712.00;4146073;28;20153;-58
2021/10/31 09:10:47;;;;;;;4.72;1.50;;;;;;;16.47;56.10;99709.50;4148188;28;19925;-52
2021/10/31 09:12:49;;;;;;;3.83;1.30;;;;;;;16.48;55.78;99706.72;4155762;28;20041;-52
2021/10/31 09:14:51;;;;;;;4.53;1.58;;;;;;;16.47;56.08;99694.41;4148720;28;20049;-55
2021/10/31 09:16:53;;;;;;;3.72;1.40;;;;;;;16.50;56.10;99688.00;4147899;28;20582;-58
2021/10/31 09:18:55;;;;;;;5.85;1.63;;;;;;;16.50;55.62;99680.91;4148080;28;20061;-52
2021/10/31 09:20:58;;;;;;;3.38;1.33;;;;;;;16.49;56.05;99676.56;4147823;28;20045;-53
2021/10/31 09:23:02;;;;;;;4.43;1.73;;;;;;;16.44;56.02;99658.31;4147760;28;20041;-51
2021/10/31 09:25:05;;;;;;;5.03;1.85;;;;;;;16.50;55.95;99664.97;4147814;28;20096;-58
2021/10/31 09:27:07;;;;;;;3.38;1.50;;;;;;;16.53;55.75;99671.84;4147914;28;20422;-57
2021/10/31 09:29:11;;;;;;;3.80;1.73;;;;;;;16.53;55.90;99670.03;4147837;28;20747;-57
2021/10/31 09:31:14;;;;;;;4.70;1.60;;;;;;;16.54;56.06;99671.72;4147995;28;20057;-57
2021/10/31 09:33:16;;;;;;;4.40;1.60;;;;;;;16.55;56.05;99672.56;4147626;28;20038;-52
2021/10/31 09:35:25;;;;;;;4.90;1.80;;;;;;;16.57;55.97;99670.63;4147695;28;20514;-54
2021/10/31 09:37:28;;;;;;;4.15;1.63;;;;;;;16.55;56.12;99668.13;4147337;28;20038;-56
2021/10/31 09:39:31;;;;;;;4.10;1.60;;;;;;;16.58;55.80;99672.34;4147904;28;20591;-57
2021/10/31 09:41:34;;;;;;;4.10;1.70;;;;;;;16.56;55.91;99666.28;4148230;28;20514;-54
2021/10/31 09:43:43;;;;;;;5.10;1.70;;;;;;;16.57;55.71;99652.06;4147596;28;20053;-52
2021/10/31 09:45:45;;;;;;;3.70;1.60;;;;;;;16.58;55.85;99656.41;4147826;28;20061;-55
2021/10/31 09:47:54;;;;;;;;;;;;;;;16.57;55.98;99637.00;4147901;28;20124;-50
2021/10/31 09:49:56;;;;;;;4.07;1.58;;;;;;;16.52;55.96;99611.78;4137922;28;19983;-54
2021/10/31 09:51:58;;;;;;;;;;;;;;;16.55;55.81;99612.38;4148521;28;20050;-58
2021/10/31 09:54:01;;;;;;;4.35;1.60;;;;;;;16.51;55.88;99605.59;4147612;28;19975;-57